createdAt,value
2022-08-22T00:01:31.440Z,100185.56
2022-08-22T00:03:08.536Z,100187.34
2022-08-22T00:06:51.207Z,100190.19
2022-08-22T00:12:00.149Z,100179.81
2022-08-22T00:17:32.118Z,100182.06
2022-08-22T00:22:36.751Z,100183.31
2022-08-22T00:27:46.857Z,100184.44
2022-08-22T00:32:57.358Z,100193.47
2022-08-22T00:38:19.983Z,100182.72
2022-08-22T00:43:54.675Z,100195.91
2022-08-22T00:49:19.279Z,100191.47
2022-08-22T00:54:32.834Z,100198.38
2022-08-22T00:59:42.662Z,100196.56
2022-08-22T01:04:58.481Z,100195.78
2022-08-22T01:10:22.069Z,100195.53
2022-08-22T01:15:27.084Z,100194.28
2022-08-22T01:20:28.588Z,100202.47
2022-08-22T01:25:48.748Z,100204.59
2022-08-22T01:31:10.823Z,100209.78
2022-08-22T01:36:33.884Z,100203.91
2022-08-22T01:41:59.578Z,100203.59
2022-08-22T01:47:06.275Z,100205.38
2022-08-22T01:52:11.711Z,100208.66
2022-08-22T01:57:13.813Z,100207.22
2022-08-22T02:02:37.064Z,100210.13
2022-08-22T02:07:54.748Z,100201.69
2022-08-22T02:13:08.522Z,100210.53
2022-08-22T02:18:23.482Z,100214.56
2022-08-22T02:23:30.619Z,100219.06
2022-08-22T02:28:56.511Z,100220.38
2022-08-22T02:34:02.425Z,100218.34
2022-08-22T02:39:10.373Z,100216.97
2022-08-22T02:44:24.347Z,100224.22
2022-08-22T02:49:43.911Z,100220.78
2022-08-22T02:54:45.651Z,100218.19
2022-08-22T03:00:31.335Z,100215.19
2022-08-22T03:05:36.810Z,100216.63
2022-08-22T03:10:41.661Z,100216.13
2022-08-22T03:15:55.090Z,100216.06
2022-08-22T03:21:16.879Z,100213.34
2022-08-22T03:26:26.056Z,100212.41
2022-08-22T03:31:29.245Z,100206.91
2022-08-22T03:36:32.011Z,100209.97
2022-08-22T03:41:36.467Z,100212.28
2022-08-22T03:47:02.833Z,100209.97
2022-08-22T03:52:28.611Z,100200.66
2022-08-22T03:57:41.966Z,100209.31
2022-08-22T04:02:44.361Z,100207.56
2022-08-22T04:08:26.130Z,100211.19
2022-08-22T04:13:55.656Z,100208.41
2022-08-22T04:19:05.720Z,100212.56
2022-08-22T04:24:51.976Z,100217.41
2022-08-22T04:30:04.482Z,100222.56
2022-08-22T04:35:27.533Z,100225.44
2022-08-22T04:40:35.140Z,100227.56
2022-08-22T04:45:46.186Z,100226.53
2022-08-22T04:50:55.010Z,100225.53
2022-08-22T04:56:17.417Z,100222.81
2022-08-22T05:01:47.973Z,100231.94
2022-08-22T05:06:56.879Z,100230.78
2022-08-22T05:12:03.872Z,100235.25
2022-08-22T05:17:08.335Z,100242.03
2022-08-22T05:22:19.200Z,100235.16
2022-08-22T05:27:25.246Z,100256.03
2022-08-22T05:32:34.683Z,100256.16
2022-08-22T05:37:49.756Z,100260.66
2022-08-22T05:42:52.553Z,100258.41
2022-08-22T05:48:08.936Z,100254.97
2022-08-22T05:53:17.463Z,100267.06
2022-08-22T05:58:45.491Z,100266.31
2022-08-22T06:03:56.969Z,100274.72
2022-08-22T06:09:04.874Z,100277.50
2022-08-22T06:14:28.348Z,100276.69
2022-08-22T06:19:33.655Z,100276.50
2022-08-22T06:24:37.511Z,100275.03
2022-08-22T06:29:45.935Z,100280.97
2022-08-22T06:34:47.713Z,100286.09
2022-08-22T06:39:52.476Z,100284.94
2022-08-22T06:45:07.068Z,100288.69
2022-08-22T06:50:16.566Z,100288.22
2022-08-22T06:55:18.381Z,100283.00
2022-08-22T07:00:20.429Z,100286.00
2022-08-22T07:05:28.628Z,100293.34
2022-08-22T07:10:30.237Z,100294.25
2022-08-22T07:15:36.570Z,100291.63
2022-08-22T07:20:41.993Z,100294.53
2022-08-22T07:26:16.809Z,100301.69
2022-08-22T07:31:41.242Z,100300.53
2022-08-22T07:37:03.447Z,100297.06
2022-08-22T07:42:11.293Z,100294.97
2022-08-22T07:47:17.976Z,100306.25
2022-08-22T07:52:43.889Z,100296.47
2022-08-22T07:57:54.763Z,100302.13
2022-08-22T08:03:01.497Z,100286.97
2022-08-22T08:08:08.442Z,100296.53
2022-08-22T08:13:20.845Z,100293.19
2022-08-22T08:18:26.037Z,100294.00
2022-08-22T08:23:35.798Z,100294.19
2022-08-22T08:28:44.403Z,100292.91
2022-08-22T08:33:48.692Z,100284.13
2022-08-22T08:38:58.104Z,100294.38
2022-08-22T08:44:14.621Z,100282.19
2022-08-22T08:49:29.465Z,100280.28
2022-08-22T08:55:00.223Z,100285.88
2022-08-22T09:00:13.415Z,100281.34
2022-08-22T09:05:52.115Z,100273.59
2022-08-22T09:11:09.566Z,100280.88
2022-08-22T09:16:31.635Z,100282.88
2022-08-22T09:22:04.259Z,100293.72
2022-08-22T09:27:15.962Z,100293.53
2022-08-22T09:32:21.400Z,100288.16
2022-08-22T09:37:55.049Z,100288.19
2022-08-22T09:43:13.715Z,100301.16
2022-08-22T09:48:48.718Z,100289.25
2022-08-22T09:54:05.447Z,100294.81
2022-08-22T09:59:12.284Z,100290.16
2022-08-22T10:04:31.378Z,100293.22
2022-08-22T10:09:53.603Z,100286.63
2022-08-22T10:15:23.372Z,100293.81
2022-08-22T10:20:31.544Z,100296.56
2022-08-22T10:25:42.448Z,100303.06
2022-08-22T10:31:02.077Z,100290.06
2022-08-22T10:36:13.167Z,100303.00
2022-08-22T10:41:26.710Z,100299.41
2022-08-22T10:46:39.053Z,100300.13
2022-08-22T10:51:52.030Z,100303.06
2022-08-22T10:57:25.725Z,100299.53
2022-08-22T11:02:36.401Z,100290.19
2022-08-22T11:07:48.428Z,100295.28
2022-08-22T11:13:12.659Z,100297.06
2022-08-22T11:18:14.757Z,100301.53
2022-08-22T11:23:46.129Z,100303.03
2022-08-22T11:29:02.846Z,100308.81
2022-08-22T11:34:39.166Z,100306.94
2022-08-22T11:39:58.420Z,100305.56
2022-08-22T11:45:02.618Z,100315.78
2022-08-22T11:50:13.272Z,100308.44
2022-08-22T11:55:32.626Z,100306.38
2022-08-22T12:00:50.726Z,100305.94
2022-08-22T12:06:09.622Z,100307.44
2022-08-22T12:11:39.229Z,100309.88
2022-08-22T12:17:02.425Z,100302.22
2022-08-22T12:22:14.422Z,100299.28
2022-08-22T12:27:29.047Z,100295.69
2022-08-22T12:33:09.813Z,100287.06
2022-08-22T12:38:42.427Z,100292.41
2022-08-22T12:43:59.081Z,100283.16
2022-08-22T12:49:23.575Z,100272.66
2022-08-22T12:54:49.700Z,100263.63
2022-08-22T12:59:59.339Z,100269.06
2022-08-22T13:05:19.936Z,100268.53
2022-08-22T13:10:51.828Z,100274.91
2022-08-22T13:15:58.896Z,100261.19
2022-08-22T13:21:05.751Z,100265.06
2022-08-22T13:26:10.472Z,100270.13
2022-08-22T13:31:34.587Z,100280.91
2022-08-22T13:36:51.720Z,100272.78
2022-08-22T13:42:01.161Z,100274.84
2022-08-22T13:47:14.143Z,100277.63
2022-08-22T13:52:39.112Z,100274.84
2022-08-22T13:57:53.991Z,100263.34
2022-08-22T14:03:05.645Z,100271.00
2022-08-22T14:08:16.253Z,100257.91
2022-08-22T14:13:31.097Z,100268.16
2022-08-22T14:18:45.657Z,100256.50
2022-08-22T14:23:51.557Z,100254.00
2022-08-22T14:28:56.584Z,100246.78
2022-08-22T14:34:03.509Z,100249.75
2022-08-22T14:39:11.182Z,100252.44
2022-08-22T14:44:18.939Z,100244.19
2022-08-22T14:49:29.290Z,100243.25
2022-08-22T14:54:32.777Z,100245.50
2022-08-22T14:59:43.522Z,100247.16
2022-08-22T15:04:48.186Z,100254.13
2022-08-22T15:10:06.203Z,100243.97
2022-08-22T15:15:10.682Z,100246.28
2022-08-22T15:20:27.974Z,100248.09
2022-08-22T15:25:42.754Z,100258.22
2022-08-22T15:30:57.987Z,100248.84
2022-08-22T15:36:22.644Z,100249.22
2022-08-22T15:41:31.485Z,100250.94
2022-08-22T15:46:42.256Z,100250.09
2022-08-22T15:51:59.051Z,100240.75
2022-08-22T15:57:12.894Z,100244.59
2022-08-22T16:02:37.020Z,100229.72
2022-08-22T16:07:38.557Z,100229.31
2022-08-22T16:12:45.908Z,100235.66
2022-08-22T16:17:53.304Z,100243.44
2022-08-22T16:22:57.915Z,100239.31
2022-08-22T16:27:59.945Z,100229.63
2022-08-22T16:33:02.503Z,100236.19
2022-08-22T16:38:04.256Z,100244.75
2022-08-22T16:43:12.268Z,100243.09
2022-08-22T16:48:40.985Z,100255.88
2022-08-22T16:54:10.420Z,100253.41
2022-08-22T16:59:24.128Z,100261.31
2022-08-22T17:04:52.989Z,100262.84
2022-08-22T17:10:26.909Z,100270.38
2022-08-22T17:15:28.381Z,100266.28
2022-08-22T17:21:04.193Z,100267.47
2022-08-22T17:26:18.027Z,100269.63
2022-08-22T17:31:36.938Z,100277.13
2022-08-22T17:36:41.493Z,100285.75
2022-08-22T17:41:51.266Z,100286.34
2022-08-22T17:47:02.352Z,100270.94
2022-08-22T17:52:16.105Z,100281.63
2022-08-22T17:57:46.849Z,100286.03
2022-08-22T18:03:00.862Z,100295.22
2022-08-22T18:08:37.597Z,100286.00
2022-08-22T18:13:55.428Z,100298.16
2022-08-22T18:19:24.107Z,100299.81
2022-08-22T18:24:34.560Z,100306.50
2022-08-22T18:30:00.551Z,100308.59
2022-08-22T18:35:09.112Z,100301.47
2022-08-22T18:40:36.843Z,100308.41
2022-08-22T18:45:51.746Z,100301.91
2022-08-22T18:51:24.423Z,100311.13
2022-08-22T18:56:36.653Z,100306.53
2022-08-22T19:01:50.262Z,100307.16
2022-08-22T19:07:13.722Z,100300.69
2022-08-22T19:12:35.537Z,100311.16
2022-08-22T19:17:58.743Z,100312.44
2022-08-22T19:23:31.852Z,100310.72
2022-08-22T19:28:37.357Z,100309.06
2022-08-22T19:33:40.617Z,100310.75
2022-08-22T19:38:56.814Z,100305.13
2022-08-22T19:43:58.383Z,100309.09
2022-08-22T19:48:59.944Z,100309.94
2022-08-22T19:54:01.440Z,100317.88
2022-08-22T19:59:21.785Z,100320.59
2022-08-22T20:04:23.293Z,100327.28
2022-08-22T20:09:42.652Z,100319.53
2022-08-22T20:14:46.620Z,100321.22
2022-08-22T20:25:44.387Z,100319.97
2022-08-22T20:30:46.794Z,100312.81
2022-08-22T20:35:55.021Z,100301.94
2022-08-22T20:41:11.082Z,100304.03
2022-08-22T20:46:43.556Z,100291.50
2022-08-22T20:52:01.130Z,100292.72
2022-08-22T20:57:13.917Z,100289.41
2022-08-22T21:02:23.398Z,100285.22
2022-08-22T21:07:30.219Z,100296.50
2022-08-22T21:12:31.913Z,100304.38
2022-08-22T21:17:34.345Z,100300.22
2022-08-22T21:22:37.130Z,100297.28
2022-08-22T21:27:39.003Z,100296.78
2022-08-22T21:32:43.623Z,100294.69
2022-08-22T21:37:45.972Z,100299.22
2022-08-22T21:43:06.917Z,100301.31
2022-08-22T21:48:34.632Z,100298.31
2022-08-22T21:53:36.236Z,100297.09
2022-08-22T21:58:41.888Z,100293.38
2022-08-22T22:03:43.480Z,100295.06
2022-08-22T22:08:47.446Z,100293.50
2022-08-22T22:13:49.238Z,100287.41
2022-08-22T22:18:50.843Z,100292.28
2022-08-22T22:23:52.586Z,100288.31
2022-08-22T22:28:54.576Z,100291.75
2022-08-22T22:33:56.311Z,100294.44
2022-08-22T22:38:57.931Z,100281.59
2022-08-22T22:43:59.491Z,100285.03
2022-08-22T22:49:01.156Z,100276.75
2022-08-22T22:54:02.751Z,100270.69
2022-08-22T22:59:13.001Z,100266.97
2022-08-22T23:04:16.438Z,100274.88
2022-08-22T23:09:18.034Z,100269.66
2022-08-22T23:14:19.803Z,100269.91
2022-08-22T23:19:21.358Z,100279.94
2022-08-22T23:24:23.751Z,100267.63
2022-08-22T23:29:25.848Z,100262.34
2022-08-22T23:34:33.608Z,100266.06
2022-08-22T23:39:38.145Z,100262.00
2022-08-22T23:44:40.723Z,100269.56
2022-08-22T23:49:43.120Z,100270.75
2022-08-22T23:54:44.739Z,100263.22
2022-08-22T23:59:57.224Z,100260.28
